sensor_id;sensor_type;location;lat;lon;timestamp;pressure;altitude;pressure_sealevel;temperature;humidity
57412;BME280;43247;52.828;-8.980;2023-07-29T00:00:43;100014.81;;;16.01;89.88
57412;BME280;43247;52.828;-8.980;2023-07-29T00:01:43;100013.12;;;16.02;89.84
57412;BME280;43247;52.828;-8.980;2023-07-29T00:02:43;100014.81;;;16.03;89.84
57412;BME280;43247;52.828;-8.980;2023-07-29T00:03:43;100016.20;;;16.03;89.82
57412;BME280;43247;52.828;-8.980;2023-07-29T00:04:44;100014.11;;;16.02;89.88
57412;BME280;43247;52.828;-8.980;2023-07-29T00:05:44;100015.21;;;16.02;89.86
57412;BME280;43247;52.828;-8.980;2023-07-29T00:06:44;100014.80;;;16.01;89.94
57412;BME280;43247;52.828;-8.980;2023-07-29T00:07:45;100017.07;;;16.01;89.90
57412;BME280;43247;52.828;-8.980;2023-07-29T00:08:45;100015.94;;;16.02;89.88
57412;BME280;43247;52.828;-8.980;2023-07-29T00:09:45;100015.47;;;16.03;89.91
57412;BME280;43247;52.828;-8.980;2023-07-29T00:10:45;100013.55;;;16.03;89.86
57412;BME280;43247;52.828;-8.980;2023-07-29T00:11:45;100014.54;;;16.04;89.71
57412;BME280;43247;52.828;-8.980;2023-07-29T00:12:45;100012.93;;;16.03;89.76
57412;BME280;43247;52.828;-8.980;2023-07-29T00:13:46;100011.89;;;16.02;89.72
57412;BME280;43247;52.828;-8.980;2023-07-29T00:14:46;100010.66;;;16.01;89.80
57412;BME280;43247;52.828;-8.980;2023-07-29T00:15:46;100010.06;;;16.01;89.79
57412;BME280;43247;52.828;-8.980;2023-07-29T00:16:46;100008.35;;;16.00;89.79
57412;BME280;43247;52.828;-8.980;2023-07-29T00:17:46;100005.39;;;16.00;89.82
57412;BME280;43247;52.828;-8.980;2023-07-29T00:18:46;100008.40;;;15.99;89.82
57412;BME280;43247;52.828;-8.980;2023-07-29T00:19:47;100008.22;;;16.00;89.84
57412;BME280;43247;52.828;-8.980;2023-07-29T00:20:47;100005.77;;;15.99;89.80
57412;BME280;43247;52.828;-8.980;2023-07-29T00:21:47;100006.74;;;16.00;89.78
57412;BME280;43247;52.828;-8.980;2023-07-29T00:22:47;100006.73;;;15.99;89.79
57412;BME280;43247;52.828;-8.980;2023-07-29T00:23:48;100008.53;;;16.00;89.77
57412;BME280;43247;52.828;-8.980;2023-07-29T00:24:51;100009.74;;;15.99;89.88
57412;BME280;43247;52.828;-8.980;2023-07-29T00:25:49;100012.08;;;15.99;89.93
57412;BME280;43247;52.828;-8.980;2023-07-29T00:26:49;100010.71;;;15.98;89.87
57412;BME280;43247;52.828;-8.980;2023-07-29T00:27:49;100008.78;;;15.98;89.83
57412;BME280;43247;52.828;-8.980;2023-07-29T00:28:49;100006.80;;;15.98;89.85
57412;BME280;43247;52.828;-8.980;2023-07-29T00:29:50;100007.72;;;15.97;89.82
57412;BME280;43247;52.828;-8.980;2023-07-29T00:30:50;100005.80;;;15.97;89.85
57412;BME280;43247;52.828;-8.980;2023-07-29T00:31:50;100009.09;;;15.97;89.90
57412;BME280;43247;52.828;-8.980;2023-07-29T00:32:51;100010.38;;;15.96;89.82
57412;BME280;43247;52.828;-8.980;2023-07-29T00:33:51;100013.30;;;15.96;89.82
57412;BME280;43247;52.828;-8.980;2023-07-29T00:34:51;100013.10;;;15.95;89.77
57412;BME280;43247;52.828;-8.980;2023-07-29T00:35:51;100014.53;;;15.95;89.83
57412;BME280;43247;52.828;-8.980;2023-07-29T00:36:51;100017.00;;;15.95;89.80
57412;BME280;43247;52.828;-8.980;2023-07-29T00:37:51;100017.51;;;15.94;89.76
57412;BME280;43247;52.828;-8.980;2023-07-29T00:38:52;100012.62;;;15.93;89.80
57412;BME280;43247;52.828;-8.980;2023-07-29T00:39:52;100011.20;;;15.93;89.77
57412;BME280;43247;52.828;-8.980;2023-07-29T00:40:52;100012.26;;;15.93;89.80
57412;BME280;43247;52.828;-8.980;2023-07-29T00:41:53;100010.47;;;15.92;89.74
57412;BME280;43247;52.828;-8.980;2023-07-29T00:42:53;100010.46;;;15.92;89.73
57412;BME280;43247;52.828;-8.980;2023-07-29T00:43:53;100009.58;;;15.91;89.79
57412;BME280;43247;52.828;-8.980;2023-07-29T00:44:54;100008.54;;;15.91;89.82
57412;BME280;43247;52.828;-8.980;2023-07-29T00:45:54;100007.64;;;15.91;89.83
57412;BME280;43247;52.828;-8.980;2023-07-29T00:46:54;100004.11;;;15.90;89.78
57412;BME280;43247;52.828;-8.980;2023-07-29T00:47:54;100003.16;;;15.90;89.75
57412;BME280;43247;52.828;-8.980;2023-07-29T00:48:55;100004.67;;;15.89;89.71
57412;BME280;43247;52.828;-8.980;2023-07-29T00:49:55;100004.96;;;15.89;89.66
57412;BME280;43247;52.828;-8.980;2023-07-29T00:50:55;100006.42;;;15.89;89.62
57412;BME280;43247;52.828;-8.980;2023-07-29T00:51:55;100003.90;;;15.88;89.60
57412;BME280;43247;52.828;-8.980;2023-07-29T00:52:56;100003.88;;;15.88;89.55
57412;BME280;43247;52.828;-8.980;2023-07-29T00:53:56;100000.44;;;15.87;89.57
57412;BME280;43247;52.828;-8.980;2023-07-29T00:54:56;100004.87;;;15.87;89.54
57412;BME280;43247;52.828;-8.980;2023-07-29T00:55:56;100001.54;;;15.86;89.56
57412;BME280;43247;52.828;-8.980;2023-07-29T00:56:56;100001.66;;;15.86;89.49
57412;BME280;43247;52.828;-8.980;2023-07-29T00:57:57;100002.10;;;15.86;89.58
57412;BME280;43247;52.828;-8.980;2023-07-29T00:58:56;100001.98;;;15.85;89.58
57412;BME280;43247;52.828;-8.980;2023-07-29T00:59:57;100001.00;;;15.85;89.61
57412;BME280;43247;52.828;-8.980;2023-07-29T01:00:57;100002.22;;;15.84;89.63
57412;BME280;43247;52.828;-8.980;2023-07-29T01:01:57;100004.19;;;15.84;89.61
57412;BME280;43247;52.828;-8.980;2023-07-29T01:02:57;100005.47;;;15.83;89.60
57412;BME280;43247;52.828;-8.980;2023-07-29T01:03:58;100007.27;;;15.82;89.63
57412;BME280;43247;52.828;-8.980;2023-07-29T01:04:58;100006.51;;;15.82;89.71
57412;BME280;43247;52.828;-8.980;2023-07-29T01:06:07;100006.86;;;15.83;89.61
57412;BME280;43247;52.828;-8.980;2023-07-29T01:07:05;100008.40;;;15.83;89.46
57412;BME280;43247;52.828;-8.980;2023-07-29T01:08:02;100010.55;;;15.84;89.22
57412;BME280;43247;52.828;-8.980;2023-07-29T01:09:02;100010.37;;;15.85;89.05
57412;BME280;43247;52.828;-8.980;2023-07-29T01:10:01;100011.41;;;15.85;88.92
57412;BME280;43247;52.828;-8.980;2023-07-29T01:11:04;100009.31;;;15.86;88.74
57412;BME280;43247;52.828;-8.980;2023-07-29T01:12:07;100013.26;;;15.86;88.70
57412;BME280;43247;52.828;-8.980;2023-07-29T01:13:04;100011.09;;;15.86;88.57
57412;BME280;43247;52.828;-8.980;2023-07-29T01:14:04;100009.64;;;15.86;88.48
57412;BME280;43247;52.828;-8.980;2023-07-29T01:15:06;100009.84;;;15.86;88.34
57412;BME280;43247;52.828;-8.980;2023-07-29T01:16:02;100005.46;;;15.86;88.34
57412;BME280;43247;52.828;-8.980;2023-07-29T01:17:03;100004.47;;;15.86;88.40
57412;BME280;43247;52.828;-8.980;2023-07-29T01:18:04;100008.53;;;15.86;88.28
57412;BME280;43247;52.828;-8.980;2023-07-29T01:19:04;100007.27;;;15.87;88.37
57412;BME280;43247;52.828;-8.980;2023-07-29T01:20:01;100004.08;;;15.86;88.34
57412;BME280;43247;52.828;-8.980;2023-07-29T01:21:06;100003.72;;;15.86;88.39
57412;BME280;43247;52.828;-8.980;2023-07-29T01:22:02;100002.25;;;15.86;88.41
57412;BME280;43247;52.828;-8.980;2023-07-29T01:23:01;100004.41;;;15.86;88.31
57412;BME280;43247;52.828;-8.980;2023-07-29T01:24:01;100005.66;;;15.86;88.24
57412;BME280;43247;52.828;-8.980;2023-07-29T01:25:01;100004.95;;;15.85;88.31
57412;BME280;43247;52.828;-8.980;2023-07-29T01:26:01;100006.28;;;15.85;88.38
57412;BME280;43247;52.828;-8.980;2023-07-29T01:27:01;100009.03;;;15.85;88.39
57412;BME280;43247;52.828;-8.980;2023-07-29T01:28:02;100006.60;;;15.84;88.27
57412;BME280;43247;52.828;-8.980;2023-07-29T01:29:02;100008.06;;;15.84;88.36
57412;BME280;43247;52.828;-8.980;2023-07-29T01:30:04;100005.44;;;15.83;88.35
57412;BME280;43247;52.828;-8.980;2023-07-29T01:31:10;100005.97;;;15.83;88.39
57412;BME280;43247;52.828;-8.980;2023-07-29T01:32:09;100008.57;;;15.82;88.40
57412;BME280;43247;52.828;-8.980;2023-07-29T01:33:09;100010.21;;;15.82;88.37
57412;BME280;43247;52.828;-8.980;2023-07-29T01:34:08;100010.35;;;15.82;88.40
57412;BME280;43247;52.828;-8.980;2023-07-29T01:35:15;100008.37;;;15.82;88.39
57412;BME280;43247;52.828;-8.980;2023-07-29T01:36:10;100009.66;;;15.81;88.42
57412;BME280;43247;52.828;-8.980;2023-07-29T01:37:09;100011.26;;;15.81;88.50
57412;BME280;43247;52.828;-8.980;2023-07-29T01:38:12;100008.15;;;15.81;88.49
57412;BME280;43247;52.828;-8.980;2023-07-29T01:39:06;100006.66;;;15.80;88.52
57412;BME280;43247;52.828;-8.980;2023-07-29T01:40:08;100009.26;;;15.80;88.54
57412;BME280;43247;52.828;-8.980;2023-07-29T01:41:08;100005.77;;;15.80;88.46
57412;BME280;43247;52.828;-8.980;2023-07-29T01:42:07;100005.83;;;15.79;88.27
57412;BME280;43247;52.828;-8.980;2023-07-29T01:43:07;100008.16;;;15.79;87.76
57412;BME280;43247;52.828;-8.980;2023-07-29T01:44:08;100006.14;;;15.79;87.49
57412;BME280;43247;52.828;-8.980;2023-07-29T01:45:08;100003.78;;;15.79;87.37
57412;BME280;43247;52.828;-8.980;2023-07-29T01:46:08;100003.33;;;15.80;87.30
57412;BME280;43247;52.828;-8.980;2023-07-29T01:47:08;100001.95;;;15.80;87.30
57412;BME280;43247;52.828;-8.980;2023-07-29T01:48:08;99997.89;;;15.80;87.26
57412;BME280;43247;52.828;-8.980;2023-07-29T01:49:08;100002.21;;;15.80;87.26
57412;BME280;43247;52.828;-8.980;2023-07-29T01:50:09;100001.97;;;15.80;87.38
57412;BME280;43247;52.828;-8.980;2023-07-29T01:51:11;100004.52;;;15.80;87.44
57412;BME280;43247;52.828;-8.980;2023-07-29T01:52:09;100005.71;;;15.79;87.17
57412;BME280;43247;52.828;-8.980;2023-07-29T01:53:09;100007.50;;;15.80;86.16
57412;BME280;43247;52.828;-8.980;2023-07-29T01:54:09;100006.65;;;15.83;85.18
57412;BME280;43247;52.828;-8.980;2023-07-29T01:55:09;100007.42;;;15.83;84.55
57412;BME280;43247;52.828;-8.980;2023-07-29T01:56:10;100009.32;;;15.88;84.08
57412;BME280;43247;52.828;-8.980;2023-07-29T01:57:10;100008.08;;;15.93;83.71
57412;BME280;43247;52.828;-8.980;2023-07-29T01:58:10;100005.73;;;15.98;83.49
57412;BME280;43247;52.828;-8.980;2023-07-29T01:59:10;100002.31;;;15.99;83.46
57412;BME280;43247;52.828;-8.980;2023-07-29T02:00:11;100005.87;;;16.02;83.08
57412;BME280;43247;52.828;-8.980;2023-07-29T02:01:10;100000.59;;;16.05;83.10
57412;BME280;43247;52.828;-8.980;2023-07-29T02:02:11;100002.09;;;16.04;82.94
57412;BME280;43247;52.828;-8.980;2023-07-29T02:03:11;100000.94;;;16.05;83.10
57412;BME280;43247;52.828;-8.980;2023-07-29T02:04:11;99995.95;;;16.05;83.14
57412;BME280;43247;52.828;-8.980;2023-07-29T02:05:11;99995.37;;;16.06;83.18
57412;BME280;43247;52.828;-8.980;2023-07-29T02:06:11;99996.01;;;16.06;83.36
57412;BME280;43247;52.828;-8.980;2023-07-29T02:07:11;99988.18;;;16.05;83.40
57412;BME280;43247;52.828;-8.980;2023-07-29T02:08:11;99986.41;;;16.03;83.70
57412;BME280;43247;52.828;-8.980;2023-07-29T02:09:12;99987.35;;;16.02;83.94
57412;BME280;43247;52.828;-8.980;2023-07-29T02:10:12;99988.16;;;16.01;84.33
57412;BME280;43247;52.828;-8.980;2023-07-29T02:11:12;99992.61;;;16.01;84.51
57412;BME280;43247;52.828;-8.980;2023-07-29T02:12:12;99993.70;;;15.99;84.69
57412;BME280;43247;52.828;-8.980;2023-07-29T02:13:12;99991.17;;;15.98;84.86
57412;BME280;43247;52.828;-8.980;2023-07-29T02:14:12;99988.02;;;15.97;85.14
57412;BME280;43247;52.828;-8.980;2023-07-29T02:15:13;99987.64;;;15.96;85.18
57412;BME280;43247;52.828;-8.980;2023-07-29T02:16:13;99987.64;;;15.95;85.29
57412;BME280;43247;52.828;-8.980;2023-07-29T02:17:13;99986.89;;;15.94;85.42
57412;BME280;43247;52.828;-8.980;2023-07-29T02:18:13;99983.47;;;15.93;85.50
57412;BME280;43247;52.828;-8.980;2023-07-29T02:19:13;99983.79;;;15.92;85.52
57412;BME280;43247;52.828;-8.980;2023-07-29T02:20:13;99979.05;;;15.92;85.63
57412;BME280;43247;52.828;-8.980;2023-07-29T02:21:14;99982.51;;;15.91;85.67
57412;BME280;43247;52.828;-8.980;2023-07-29T02:22:16;99981.68;;;15.91;85.78
57412;BME280;43247;52.828;-8.980;2023-07-29T02:23:14;99982.48;;;15.90;85.97
57412;BME280;43247;52.828;-8.980;2023-07-29T02:24:14;99985.01;;;15.89;86.13
57412;BME280;43247;52.828;-8.980;2023-07-29T02:25:15;99986.93;;;15.88;86.10
57412;BME280;43247;52.828;-8.980;2023-07-29T02:26:15;99991.11;;;15.88;86.21
57412;BME280;43247;52.828;-8.980;2023-07-29T02:27:15;99992.83;;;15.87;86.47
57412;BME280;43247;52.828;-8.980;2023-07-29T02:28:15;99995.37;;;15.87;86.47
57412;BME280;43247;52.828;-8.980;2023-07-29T02:29:15;99996.62;;;15.86;86.59
57412;BME280;43247;52.828;-8.980;2023-07-29T02:30:16;99995.90;;;15.86;86.81
57412;BME280;43247;52.828;-8.980;2023-07-29T02:31:17;99996.40;;;15.86;86.73
57412;BME280;43247;52.828;-8.980;2023-07-29T02:32:16;99999.62;;;15.86;86.99
57412;BME280;43247;52.828;-8.980;2023-07-29T02:33:16;100000.09;;;15.85;86.94
57412;BME280;43247;52.828;-8.980;2023-07-29T02:34:16;100001.15;;;15.85;86.97
57412;BME280;43247;52.828;-8.980;2023-07-29T02:35:16;99998.90;;;15.84;87.01
57412;BME280;43247;52.828;-8.980;2023-07-29T02:36:17;100000.32;;;15.83;87.14
57412;BME280;43247;52.828;-8.980;2023-07-29T02:37:16;99997.26;;;15.83;87.14
57412;BME280;43247;52.828;-8.980;2023-07-29T02:38:17;100000.28;;;15.83;87.14
57412;BME280;43247;52.828;-8.980;2023-07-29T02:39:17;100000.50;;;15.82;87.21
57412;BME280;43247;52.828;-8.980;2023-07-29T02:40:17;99995.91;;;15.82;87.33
57412;BME280;43247;52.828;-8.980;2023-07-29T02:41:17;99997.60;;;15.81;87.43
57412;BME280;43247;52.828;-8.980;2023-07-29T02:42:17;99997.19;;;15.81;87.46
57412;BME280;43247;52.828;-8.980;2023-07-29T02:43:17;99994.48;;;15.81;87.57
57412;BME280;43247;52.828;-8.980;2023-07-29T02:44:18;99993.98;;;15.80;87.60
57412;BME280;43247;52.828;-8.980;2023-07-29T02:45:18;99992.69;;;15.80;87.72
57412;BME280;43247;52.828;-8.980;2023-07-29T02:46:18;99993.46;;;15.80;87.78
57412;BME280;43247;52.828;-8.980;2023-07-29T02:47:18;99999.08;;;15.79;87.86
57412;BME280;43247;52.828;-8.980;2023-07-29T02:48:18;100001.58;;;15.77;87.99
57412;BME280;43247;52.828;-8.980;2023-07-29T02:49:19;99999.37;;;15.77;88.05
57412;BME280;43247;52.828;-8.980;2023-07-29T02:50:19;100001.01;;;15.76;88.11
57412;BME280;43247;52.828;-8.980;2023-07-29T02:51:19;100001.72;;;15.75;88.01
57412;BME280;43247;52.828;-8.980;2023-07-29T02:52:19;100005.93;;;15.75;87.99
57412;BME280;43247;52.828;-8.980;2023-07-29T02:53:20;100008.42;;;15.76;88.04
57412;BME280;43247;52.828;-8.980;2023-07-29T02:54:20;100010.60;;;15.76;88.05
57412;BME280;43247;52.828;-8.980;2023-07-29T02:55:20;100010.16;;;15.76;88.05
57412;BME280;43247;52.828;-8.980;2023-07-29T02:56:20;100008.16;;;15.76;88.15
57412;BME280;43247;52.828;-8.980;2023-07-29T02:57:20;100011.81;;;15.75;87.91
57412;BME280;43247;52.828;-8.980;2023-07-29T02:58:21;100013.75;;;15.75;87.62
57412;BME280;43247;52.828;-8.980;2023-07-29T02:59:21;100011.07;;;15.75;87.42
57412;BME280;43247;52.828;-8.980;2023-07-29T03:00:21;100011.89;;;15.75;87.36
57412;BME280;43247;52.828;-8.980;2023-07-29T03:01:23;100011.11;;;15.76;87.26
57412;BME280;43247;52.828;-8.980;2023-07-29T03:02:22;100010.74;;;15.76;87.23
57412;BME280;43247;52.828;-8.980;2023-07-29T03:03:22;100011.07;;;15.80;87.11
57412;BME280;43247;52.828;-8.980;2023-07-29T03:04:22;100009.84;;;15.79;87.22
57412;BME280;43247;52.828;-8.980;2023-07-29T03:05:22;100007.01;;;15.79;87.46
57412;BME280;43247;52.828;-8.980;2023-07-29T03:06:23;100012.93;;;15.79;87.44
57412;BME280;43247;52.828;-8.980;2023-07-29T03:07:23;100019.09;;;15.79;87.51
57412;BME280;43247;52.828;-8.980;2023-07-29T03:08:23;100017.32;;;15.79;87.56
57412;BME280;43247;52.828;-8.980;2023-07-29T03:09:23;100023.85;;;15.79;87.60
57412;BME280;43247;52.828;-8.980;2023-07-29T03:10:23;100023.63;;;15.80;87.70
57412;BME280;43247;52.828;-8.980;2023-07-29T03:11:23;100022.22;;;15.80;87.85
57412;BME280;43247;52.828;-8.980;2023-07-29T03:12:24;100019.90;;;15.80;87.87
57412;BME280;43247;52.828;-8.980;2023-07-29T03:13:24;100021.50;;;15.80;87.86
57412;BME280;43247;52.828;-8.980;2023-07-29T03:14:24;100020.99;;;15.78;87.95
57412;BME280;43247;52.828;-8.980;2023-07-29T03:15:24;100018.41;;;15.78;88.09
57412;BME280;43247;52.828;-8.980;2023-07-29T03:16:24;100018.96;;;15.77;88.08
57412;BME280;43247;52.828;-8.980;2023-07-29T03:17:25;100018.48;;;15.78;88.14
57412;BME280;43247;52.828;-8.980;2023-07-29T03:18:25;100020.05;;;15.80;88.07
57412;BME280;43247;52.828;-8.980;2023-07-29T03:19:25;100015.80;;;15.80;88.12
57412;BME280;43247;52.828;-8.980;2023-07-29T03:20:25;100015.73;;;15.79;88.22
57412;BME280;43247;52.828;-8.980;2023-07-29T03:21:26;100013.53;;;15.80;88.16
57412;BME280;43247;52.828;-8.980;2023-07-29T03:22:26;100017.71;;;15.79;87.56
57412;BME280;43247;52.828;-8.980;2023-07-29T03:23:27;100013.68;;;15.84;86.42
57412;BME280;43247;52.828;-8.980;2023-07-29T03:24:26;100012.81;;;15.89;85.87
57412;BME280;43247;52.828;-8.980;2023-07-29T03:25:26;100013.48;;;15.95;85.30
57412;BME280;43247;52.828;-8.980;2023-07-29T03:26:26;100015.45;;;16.00;85.01
57412;BME280;43247;52.828;-8.980;2023-07-29T03:27:27;100019.48;;;16.07;84.60
57412;BME280;43247;52.828;-8.980;2023-07-29T03:28:32;100021.24;;;16.08;84.29
57412;BME280;43247;52.828;-8.980;2023-07-29T03:29:28;100021.49;;;16.07;84.20
57412;BME280;43247;52.828;-8.980;2023-07-29T03:30:28;100020.58;;;16.07;84.04
57412;BME280;43247;52.828;-8.980;2023-07-29T03:31:28;100020.39;;;16.07;83.93
57412;BME280;43247;52.828;-8.980;2023-07-29T03:32:28;100020.27;;;16.06;83.92
57412;BME280;43247;52.828;-8.980;2023-07-29T03:33:29;100020.26;;;16.06;83.86
57412;BME280;43247;52.828;-8.980;2023-07-29T03:34:29;100019.66;;;16.06;83.94
57412;BME280;43247;52.828;-8.980;2023-07-29T03:35:29;100020.72;;;16.05;83.79
57412;BME280;43247;52.828;-8.980;2023-07-29T03:36:30;100025.44;;;16.06;83.52
57412;BME280;43247;52.828;-8.980;2023-07-29T03:37:30;100025.07;;;16.10;83.31
57412;BME280;43247;52.828;-8.980;2023-07-29T03:38:30;100024.13;;;16.09;83.50
57412;BME280;43247;52.828;-8.980;2023-07-29T03:39:30;100023.31;;;16.10;83.08
57412;BME280;43247;52.828;-8.980;2023-07-29T03:40:30;100023.56;;;16.12;82.64
57412;BME280;43247;52.828;-8.980;2023-07-29T03:41:31;100024.49;;;16.13;82.38
57412;BME280;43247;52.828;-8.980;2023-07-29T03:42:31;100024.79;;;16.13;82.22
57412;BME280;43247;52.828;-8.980;2023-07-29T03:43:31;100026.54;;;16.16;81.98
57412;BME280;43247;52.828;-8.980;2023-07-29T03:44:31;100026.12;;;16.16;81.93
57412;BME280;43247;52.828;-8.980;2023-07-29T03:45:31;100027.26;;;16.16;82.05
57412;BME280;43247;52.828;-8.980;2023-07-29T03:46:31;100026.84;;;16.15;82.09
57412;BME280;43247;52.828;-8.980;2023-07-29T03:47:31;100030.82;;;16.15;82.17
57412;BME280;43247;52.828;-8.980;2023-07-29T03:48:31;100029.04;;;16.15;82.09
57412;BME280;43247;52.828;-8.980;2023-07-29T03:49:32;100031.46;;;16.16;82.25
57412;BME280;43247;52.828;-8.980;2023-07-29T03:50:34;100031.05;;;16.15;82.21
57412;BME280;43247;52.828;-8.980;2023-07-29T03:51:32;100031.45;;;16.15;82.21
57412;BME280;43247;52.828;-8.980;2023-07-29T03:52:32;100029.83;;;16.15;82.28
57412;BME280;43247;52.828;-8.980;2023-07-29T03:53:33;100031.86;;;16.14;82.35
57412;BME280;43247;52.828;-8.980;2023-07-29T03:54:33;100031.36;;;16.11;82.56
57412;BME280;43247;52.828;-8.980;2023-07-29T03:55:33;100033.20;;;16.10;82.50
57412;BME280;43247;52.828;-8.980;2023-07-29T03:56:33;100031.51;;;16.11;82.15
57412;BME280;43247;52.828;-8.980;2023-07-29T03:57:33;100029.86;;;16.12;81.80
57412;BME280;43247;52.828;-8.980;2023-07-29T03:58:33;100027.49;;;16.12;81.98
57412;BME280;43247;52.828;-8.980;2023-07-29T03:59:33;100027.02;;;16.13;82.12
57412;BME280;43247;52.828;-8.980;2023-07-29T04:00:34;100028.19;;;16.13;81.91
57412;BME280;43247;52.828;-8.980;2023-07-29T04:01:34;100030.77;;;16.12;81.93
57412;BME280;43247;52.828;-8.980;2023-07-29T04:02:34;100028.82;;;16.12;81.86
57412;BME280;43247;52.828;-8.980;2023-07-29T04:03:34;100030.29;;;16.13;81.77
57412;BME280;43247;52.828;-8.980;2023-07-29T04:04:34;100030.99;;;16.15;81.73
57412;BME280;43247;52.828;-8.980;2023-07-29T04:05:35;100028.60;;;16.14;81.62
57412;BME280;43247;52.828;-8.980;2023-07-29T04:06:36;100029.14;;;16.15;81.50
57412;BME280;43247;52.828;-8.980;2023-07-29T04:07:36;100029.10;;;16.15;81.98
57412;BME280;43247;52.828;-8.980;2023-07-29T04:08:36;100026.84;;;16.15;82.35
57412;BME280;43247;52.828;-8.980;2023-07-29T04:09:36;100024.85;;;16.15;82.54
57412;BME280;43247;52.828;-8.980;2023-07-29T04:10:36;100023.32;;;16.14;82.42
57412;BME280;43247;52.828;-8.980;2023-07-29T04:11:36;100026.07;;;16.13;82.67
57412;BME280;43247;52.828;-8.980;2023-07-29T04:12:37;100028.42;;;16.13;82.42
57412;BME280;43247;52.828;-8.980;2023-07-29T04:13:37;100028.82;;;16.12;82.46
57412;BME280;43247;52.828;-8.980;2023-07-29T04:14:37;100029.24;;;16.11;82.45
57412;BME280;43247;52.828;-8.980;2023-07-29T04:15:37;100026.39;;;16.10;82.70
57412;BME280;43247;52.828;-8.980;2023-07-29T04:16:38;100025.03;;;16.08;82.59
57412;BME280;43247;52.828;-8.980;2023-07-29T04:17:38;100025.58;;;16.08;82.70
57412;BME280;43247;52.828;-8.980;2023-07-29T04:18:38;100023.15;;;16.06;82.85
57412;BME280;43247;52.828;-8.980;2023-07-29T04:19:39;100026.42;;;16.04;83.15
57412;BME280;43247;52.828;-8.980;2023-07-29T04:20:39;100029.46;;;16.03;83.20
57412;BME280;43247;52.828;-8.980;2023-07-29T04:21:39;100029.73;;;16.03;83.29
57412;BME280;43247;52.828;-8.980;2023-07-29T04:22:39;100029.83;;;16.03;83.19
57412;BME280;43247;52.828;-8.980;2023-07-29T04:23:39;100031.01;;;16.02;83.16
57412;BME280;43247;52.828;-8.980;2023-07-29T04:24:39;100030.32;;;16.01;83.34
57412;BME280;43247;52.828;-8.980;2023-07-29T04:25:40;100033.55;;;16.00;83.38
57412;BME280;43247;52.828;-8.980;2023-07-29T04:26:40;100029.92;;;15.99;83.47
57412;BME280;43247;52.828;-8.980;2023-07-29T04:27:40;100030.93;;;15.98;83.66
57412;BME280;43247;52.828;-8.980;2023-07-29T04:28:41;100028.66;;;15.97;83.77
57412;BME280;43247;52.828;-8.980;2023-07-29T04:29:41;100026.42;;;15.97;84.04
57412;BME280;43247;52.828;-8.980;2023-07-29T04:30:41;100023.93;;;15.96;84.16
57412;BME280;43247;52.828;-8.980;2023-07-29T04:31:41;100025.98;;;15.95;84.30
57412;BME280;43247;52.828;-8.980;2023-07-29T04:32:41;100023.13;;;15.94;84.64
57412;BME280;43247;52.828;-8.980;2023-07-29T04:33:41;100021.75;;;15.93;84.59
57412;BME280;43247;52.828;-8.980;2023-07-29T04:34:41;100028.30;;;15.92;84.75
57412;BME280;43247;52.828;-8.980;2023-07-29T04:35:42;100028.95;;;15.91;84.96
57412;BME280;43247;52.828;-8.980;2023-07-29T04:36:42;100025.43;;;15.90;84.95
57412;BME280;43247;52.828;-8.980;2023-07-29T04:37:42;100023.66;;;15.90;85.11
57412;BME280;43247;52.828;-8.980;2023-07-29T04:38:42;100024.12;;;15.89;85.36
57412;BME280;43247;52.828;-8.980;2023-07-29T04:39:42;100025.80;;;15.89;85.61
57412;BME280;43247;52.828;-8.980;2023-07-29T04:40:42;100023.98;;;15.88;85.59
57412;BME280;43247;52.828;-8.980;2023-07-29T04:41:43;100029.15;;;15.87;85.72
57412;BME280;43247;52.828;-8.980;2023-07-29T04:42:43;100028.84;;;15.87;85.89
57412;BME280;43247;52.828;-8.980;2023-07-29T04:43:43;100028.95;;;15.86;85.94
57412;BME280;43247;52.828;-8.980;2023-07-29T04:44:44;100024.68;;;15.85;86.09
57412;BME280;43247;52.828;-8.980;2023-07-29T04:45:44;100027.16;;;15.85;86.25
57412;BME280;43247;52.828;-8.980;2023-07-29T04:46:44;100030.12;;;15.86;86.34
57412;BME280;43247;52.828;-8.980;2023-07-29T04:47:44;100025.27;;;15.85;86.50
57412;BME280;43247;52.828;-8.980;2023-07-29T04:48:44;100023.82;;;15.84;86.56
57412;BME280;43247;52.828;-8.980;2023-07-29T04:49:44;100022.08;;;15.83;86.63
57412;BME280;43247;52.828;-8.980;2023-07-29T04:50:44;100021.89;;;15.83;86.70
57412;BME280;43247;52.828;-8.980;2023-07-29T04:51:45;100023.85;;;15.82;86.78
57412;BME280;43247;52.828;-8.980;2023-07-29T04:52:45;100027.84;;;15.82;86.73
57412;BME280;43247;52.828;-8.980;2023-07-29T04:53:45;100031.62;;;15.80;86.86
57412;BME280;43247;52.828;-8.980;2023-07-29T04:54:45;100033.40;;;15.81;86.96
57412;BME280;43247;52.828;-8.980;2023-07-29T04:55:45;100030.06;;;15.80;86.93
57412;BME280;43247;52.828;-8.980;2023-07-29T04:56:45;100030.61;;;15.79;87.01
57412;BME280;43247;52.828;-8.980;2023-07-29T04:57:46;100031.14;;;15.79;87.03
57412;BME280;43247;52.828;-8.980;2023-07-29T04:58:46;100032.14;;;15.79;87.10
57412;BME280;43247;52.828;-8.980;2023-07-29T04:59:47;100034.99;;;15.79;87.15
57412;BME280;43247;52.828;-8.980;2023-07-29T05:00:47;100036.34;;;15.78;87.22
57412;BME280;43247;52.828;-8.980;2023-07-29T05:01:47;100036.32;;;15.78;87.23
57412;BME280;43247;52.828;-8.980;2023-07-29T05:02:47;100037.99;;;15.78;87.33
57412;BME280;43247;52.828;-8.980;2023-07-29T05:03:47;100036.93;;;15.78;87.30
57412;BME280;43247;52.828;-8.980;2023-07-29T05:04:47;100040.31;;;15.77;87.38
57412;BME280;43247;52.828;-8.980;2023-07-29T05:05:47;100038.42;;;15.77;87.44
57412;BME280;43247;52.828;-8.980;2023-07-29T05:06:48;100040.95;;;15.77;87.51
57412;BME280;43247;52.828;-8.980;2023-07-29T05:07:48;100044.79;;;15.76;87.61
57412;BME280;43247;52.828;-8.980;2023-07-29T05:08:48;100045.71;;;15.76;87.60
57412;BME280;43247;52.828;-8.980;2023-07-29T05:09:48;100048.37;;;15.76;87.64
57412;BME280;43247;52.828;-8.980;2023-07-29T05:10:49;100047.10;;;15.75;87.65